AOPA News

Job am Flugplatz Zell am See
Der Flugplatz Zell am See stellt ein: Mitarbeiter für den Bereich Flugbetriebs- und Einsatzleitung mit haustechnischen Kenntnissen weiterlesen...

Neue Info Frequenz in Österreich!
Ab dem 29.03.2018 wird in Österreich eine neue Info Frequenz aktiv. Die Frequenz 134,625 ist dem neuen FIC North zugeordnet. Nähere Informationen findet Ihr unter https://www.austrocontrol.at/flugsicherung/aim_services/aim_produkte/aip_amdt Eine gute Darstellung der österreichischen Luftraumstruktur findet Ihr unter: https://www.austrocontrol.at/jart/prj3/austro_control/main.jart?rel=de&content-id=1360157906930

Freier Zugang zu avi-law.com für AOPA Mitglieder
Wie viele unserer Mitglieder bereits in Erfahrung gebracht haben, ist der Zugang zur Homepage von Hr. Mag. iur. Joachim J. Janezic, MEng., Luftrecht.at, mittlerweile kostenpflichtig geworden. Link: http://avi-law.com/ Was beinhaltet die Homepage: Normen Internationales Recht Europäisches Recht Österreichisches Recht Judikatur EuGH OGH OLG Wien VfGH Literatur Definitionen Abkürzungen Downloads Drohnen über Österreich Übersicht Aviation Safety Law Luftfahrtrechtliche Entscheidungen 2015/16/17 Neuerungen im Luftfahrtrecht 2016 Rechtliche Rahmenbedingungen für Drohnen Und vieles mehr. AOPA Mitglieder kommen in den Genuß des kostenfreien Zugangs, bitte um Zusendung der zu registrierenden e-mail Adresse und den Namen dazu an michl@aopa.at übermitteln. Die Freischaltung erfolgt in der Regel binnen 10 Tagen.

Information der AOPA Österreich zur Frequenzumstellung auf 8,33kHz Raster
Die AOPA Österreich hat mit dem zuständigen Verkehrsministerium und der Austro Control Kontakt aufgenommen um zu eruieren, wie die Umstellung auf 8,33kHz Raster nunmehr durchgeführt wird. Dabei hat uns das Verkehrsministerium mitgeteilt, dass aufgrund der Frequenznutzungsverordnung, also der gesetzlichen Vorgaben, eine Verlängerung der Frist nicht möglich ist und daher ab 01.01.2018 die Verpflichtung besteht, für alle Funkgeräte sowohl in Flugzeugen als auch in Bodenstationen nur mehr auf der Frequenz mit einer 8,33kHz Rasterung zu betreiben. Flugzeuge müssen daher, sofern sie nicht im Luftraum E oder G unterwegs sind und das Funkgerät nicht eingeschaltet ist, über ein Funkgerät mit einer 8,33kHz Rasterung verfügen. Dies gilt für den nationalen Bereich. Bei Grenzüberflügen ist selbstverständlich ein 8,33-Gerät erforderlich. Es liegt daher nicht im Ermessen des Ministeriums oder der ACG, hier die Umsetzung über den 01.01.2018 hinaus zu verlängern, da es sich um eine verbindliche Vorgabe der EASA handelt. Auch den Ländern Schweiz, Deutschland, Tschechien und Polen wurde seitens der EASA keine Erlaubnis gegeben länger auf die Einführung des 8,33kHz Rasters zu verzichten. Wie die zuständigen Herren des Ministeriums mitteilen, sind die Flughäfen und auch der Großteil der Flugplätze in Österreich ab 01.01.2018 umgestellt. Auch nach Auskunft der Fernmeldebehörde sollte diese Umstellung an den Flugplätzen durchgeführt sein. Wie im Hintergrund zu vernehmen ist, wird wahrscheinlich in den ersten Monaten 2018 keine Bestrafung erfolgen, jedoch ist dies nicht als gesichert anzunehmen. Als Anmerkung sei noch hinzugefügt, dass in der AIP bei manchen Flugplätzen noch z.B. 118,60 angegeben ist, dies bedeutet aber, dass auch diese Frequenz bereits auf die Frequenz 118,600 umgestellt ist.

Weihnachts-Special von Jeppesen für AOPA Mitglieder
Neue AOPA Mitglieder, die zwischen Dezember und April beitreten, erhalten von Jeppesen auf Wunsch die iPad App Mobile FliteDeck VFR Europa einmalig als "18 für 12" Angebot. Somit erhält man 18 Monate zum Preis von 12 Monaten. Das Angebot gilt für alle neuen AOPA-Mitglieder in Deutschland, Österreich und der Schweiz im genannten Zeitraum. Bestehende AOPA Mitglieder erhalten ein kostenloses Mobile FD VFR Trip Kit für Südafrika. Navigraph sponsert 10 kostenlose Jahresservice Pakete von Jeppesen Charts. Die ersten 10 Personen, die sich auf das Angebot der AOPA melden, erhalten jeweils ein Navigraph Charts Paket. Navigraph bietet Simulationslösungenfür verschiedene Plattformen an (www.navigraph.com). Um das Angebot zu nutzen schreiben sie bitte an office@aopa.at. Wir wünschen Ihnen ein frohes Weihnachtsfest und einen guten Rutsch in eine erfolgreiche Flugsaison 2018.

Aufzeichnung des Rusty Pilots Garmin Avionik Seminars
Liebe Mitglieder! Hier findet Ihr unsere Aufzeichnung des Garmin Avionik Seminars im November 2017. Mitwirkende: Fabian Kienzle - Garmin Bernd Steininger – RICOH (Videokonferenzsystem) Thomas Türkott – A1 Multitechnik (Backup Datenleitung) Niki Lemberger – RAINERS Hotel Gerald Menclik – Videoaufzeichnung und Produktion AOPA – Organisation, Unterstützung, …
Termine
Februar 2018
01
DO
02
FR
03
SA
04
SO
05
MO
06
DI
07
MI
08
DO
09
FR
10
SA
11
SO
Faschingsonntag
12
MO
Rosenmontag
13
DI
Faschingdienstag
14
MI
Aschermittwoch
15
DO
16
FR
17
SA
18
SO
19
MO
20
DI
21
MI
22
DO
23
FR
24
SA
25
SO
26
MO
27
DI
28
MI
März 2018
01
DO
04
SO
05
MO
06
DI
07
MI
08
DO
11
SO
12
MO
13
DI
14
MI
15
DO
18
SO
19
MO
St. Josef (K, St, T, V)
20
DI
21
MI
22
DO
23
FR
24
SA
25
SO
Palmsonntag
26
MO
27
DI
28
MI
29
DO
Gründonnerstag
30
FR
Karfreitag
31
SA
Ostersamstag
April 2018
01
SO
Ostersonntag
02
MO
Ostermontag
03
DI
04
MI
05
DO
06
FR
07
SA
08
SO
09
MO
10
DI
11
MI
12
DO
13
FR
14
SA
15
SO
16
MO
17
DI
22
SO
23
MO
24
DI
25
MI
26
DO
27
FR
28
SA
29
SO
30
MO
Mai 2018
01
DI
Staatsfeiertag
02
MI
03
DO
04
FR
St. Florian (OÖ)
05
SA
06
SO
07
MO
08
DI
09
MI
10
DO
Christi Himmelfahrt
11
FR
12
SA
13
SO
14
MO
15
DI
16
MI
17
DO
18
FR
19
SA
Pfingstsamstag
20
SO
Pfingstsonntag
21
MO
Pfingstmontag
22
DI
23
MI
24
DO
25
FR
26
SA
27
SO
28
MO
29
DI
30
MI
31
DO
Fronleichnam
Juni 2018
01
FR
02
SA
03
SO
04
MO
05
DI
06
MI
07
DO
08
FR
09
SA
10
SO
11
MO
12
DI
13
MI
17
SO
18
MO
19
DI
20
MI
21
DO
22
FR
23
SA
24
SO
25
MO
26
DI
27
MI
28
DO
29
FR
30
SA
Juli 2018
01
SO
02
MO
03
DI
04
MI
05
DO
06
FR
07
SA
08
SO
09
MO
10
DI
11
MI
12
DO
13
FR
14
SA
15
SO
23
MO
24
DI
25
MI
26
DO
27
FR
28
SA
29
SO
30
MO
31
DI
Flugwetter

Quelle: https://aviationweather.gov

LOWG GRAZ (MIL/CIV)
LOWG 242250Z AUTO 05007KT 9999 BKN050 M06/M12 Q1022
2018-02-24T22:50:00Z
Temperatur: -6.0°C Taupunkt: -12.0°C Windrichtung: 50° Windgeschwindigkeit: 7kt
Sicht: 6.21SM/5.40NM/9.99km
QNH: 30.18hg / 1,022mb
Kategorie: VFR
TAF LOWG 241715Z 2418/2518 VRB02KT 9999 FEW012 BKN040 TXM03/2418Z TNM12/2506Z PROB30 TEMPO 2418/2421 4000 BR BECMG 2419/2422 03007KT CAVOK TEMPO 2513/2515 12007KT 9999 BKN040

LOWI INNSBRUCK AIRPOR
LOWI 242250Z AUTO 09005KT 050V120 9999 FEW024 BKN026 M03/M08 Q1016
2018-02-24T22:50:00Z
Temperatur: -3.0°C Taupunkt: -8.0°C Windrichtung: 90° Windgeschwindigkeit: 5kt
Sicht: 6.21SM/5.40NM/9.99km
Sky Cover: FEW, Wolkenbasis: 2400ft
Sky Cover: BKN, Wolkenbasis: 2600ft
QNH: 30.00hg / 1,016mb
Kategorie: MVFR
TAF LOWI 241715Z 2418/2518 08008KT 9999 FEW015 OVC025 TX01/2514Z TNM03/2506Z TEMPO 2510/2517 SCT035

LOWK KLAGENFURT(CIV/M
LOWK 242250Z AUTO 08010KT 9999 SCT036 BKN040 M04/M10 Q1019
2018-02-24T22:50:00Z
Temperatur: -4.0°C Taupunkt: -10.0°C Windrichtung: 80° Windgeschwindigkeit: 10kt
Sicht: 6.21SM/5.40NM/9.99km
Sky Cover: SCT, Wolkenbasis: 3600ft
Sky Cover: BKN, Wolkenbasis: 4000ft
QNH: 30.09hg / 1,019mb
Kategorie: VFR
TAF LOWK 241715Z 2418/2518 09005KT 9999 FEW020 SCT030 BKN045 TXM03/2418Z TNM12/2506Z BECMG 2423/2502 FEW040 SCT060 BECMG 2503/2506 CAVOK TEMPO 2509/2516 10014KT

LOWL LINZ (CIV/MIL)
LOWL 242250Z 07013KT 9999 FEW034 M06/M13 Q1025 NOSIG
2018-02-24T22:50:00Z
Temperatur: -6.0°C Taupunkt: -13.0°C Windrichtung: 70° Windgeschwindigkeit: 13kt
Sicht: 6.21SM/5.40NM/9.99km
QNH: 30.27hg / 1,025mb
Kategorie: VFR
TAF AMD LOWL 242150Z 2421/2518 06011KT CAVOK TXM02/2512Z TNM09/2506Z TEMPO 2421/2518 09015KT 9999 SCT045

LOWS SALZBURG AIRPORT
LOWS 242250Z 05011KT 030V100 9999 FEW035 BKN040 M05/M12 Q1020 NOSIG
2018-02-24T22:50:00Z
Temperatur: -5.0°C Taupunkt: -12.0°C Windrichtung: 50° Windgeschwindigkeit: 11kt
Sicht: 6.21SM/5.40NM/9.99km
Sky Cover: FEW, Wolkenbasis: 3500ft
Sky Cover: BKN, Wolkenbasis: 4000ft
QNH: 30.12hg / 1,020mb
Kategorie: VFR
TAF AMD LOWS 242127Z 2421/2518 04007KT 9999 SCT035 TXM04/2421Z TNM08/2506Z TEMPO 2421/2518 05013KT BKN035 PROB40 TEMPO 2421/2424 05015G25KT

LOWW VIENNA/SCHWECHAT
LOWW 242250Z 34013KT 9999 FEW035 M07/M13 Q1025 R88/15//95 NOSIG
2018-02-24T22:50:00Z
Temperatur: -7.0°C Taupunkt: -13.0°C Windrichtung: 340° Windgeschwindigkeit: 13kt
Sicht: 6.21SM/5.40NM/9.99km
QNH: 30.27hg / 1,025mb
Kategorie: VFR
TAF LOWW 241715Z 2418/2524 36015G25KT CAVOK TXM05/2418Z TNM12/2505Z TEMPO 2418/2517 33012KT 9999 FEW040 PROB30 TEMPO 2418/2422 02020G30KT -SHSN FEW030 BKN040 BECMG 2517/2519 34007KT

LOXZ ZELTWEG (MIL)
LOXZ 242050Z 07015KT 15KM FEW016ST OVC040SC M05/M11 Q1017
2018-02-24T20:50:00Z
Temperatur: -5.0°C Taupunkt: -11.0°C Windrichtung: 70° Windgeschwindigkeit: 15kt
Sicht: 9.32SM/8.10NM/15.00km
QNH: 30.03hg / 1,017mb